createdAt,value
2023-05-11T00:03:39.879Z,1.73
2023-05-11T00:08:43.816Z,0.53
2023-05-11T00:13:46.918Z,2.65
2023-05-11T00:25:06.395Z,2.07
2023-05-11T00:30:10.706Z,0.70
2023-05-11T00:35:14.105Z,0.52
2023-05-11T00:40:18.395Z,0.65
2023-05-11T00:45:21.102Z,1.48
2023-05-11T00:50:23.801Z,1.15
2023-05-11T00:55:28.884Z,0.65
2023-05-11T01:00:31.462Z,0.82
2023-05-11T01:05:38.117Z,0.52
2023-05-11T01:10:43.866Z,1.92
2023-05-11T01:15:49.573Z,1.95
2023-05-11T01:20:54.411Z,1.65
2023-05-11T01:26:12.834Z,1.08
2023-05-11T01:31:18.705Z,1.70
2023-05-11T01:36:22.309Z,0.20
2023-05-11T01:41:26.964Z,1.35
2023-05-11T01:46:33.425Z,0.75
2023-05-11T01:51:38.499Z,0.90
2023-05-11T01:56:43.066Z,2.70
2023-05-11T02:01:47.298Z,0.75
2023-05-11T02:06:50.394Z,0.90
2023-05-11T02:11:54.637Z,1.30
2023-05-11T02:16:59.491Z,0.63
2023-05-11T02:22:02.763Z,1.67
2023-05-11T02:27:05.861Z,0.30
2023-05-11T02:32:11.178Z,1.73
2023-05-11T02:37:14.731Z,0.68
2023-05-11T02:42:22.038Z,1.00
2023-05-11T02:47:28.687Z,0.70
2023-05-11T02:52:32.728Z,0.45
2023-05-11T03:02:39.781Z,3.47
2023-05-11T03:07:43.300Z,1.25
2023-05-11T03:12:46.461Z,0.75
2023-05-11T03:17:54.278Z,0.40
2023-05-11T03:22:57.018Z,0.75
2023-05-11T03:28:00.828Z,1.23
2023-05-11T03:33:05.211Z,0.30
2023-05-11T03:38:08.776Z,1.48
2023-05-11T03:43:13.128Z,0.80
2023-05-11T03:48:18.023Z,1.50
2023-05-11T03:53:21.370Z,0.30
2023-05-11T03:58:24.735Z,1.33
2023-05-11T04:03:29.160Z,1.38
2023-05-11T04:08:31.850Z,1.58
2023-05-11T04:13:34.397Z,0.70
2023-05-11T04:18:38.791Z,0.75
2023-05-11T04:23:41.726Z,1.17
2023-05-11T04:28:44.723Z,0.98
2023-05-11T04:33:48.669Z,2.33
2023-05-11T04:38:53.196Z,0.85
2023-05-11T04:43:55.908Z,0.35
2023-05-11T04:49:00.152Z,0.70
2023-05-11T04:54:03.151Z,0.85
2023-05-11T04:59:06.162Z,2.53
2023-05-11T05:04:10.519Z,1.30
2023-05-11T05:09:13.277Z,0.60
2023-05-11T05:14:16.101Z,2.75
2023-05-11T05:19:19.972Z,0.70
2023-05-11T05:24:22.630Z,0.68
2023-05-11T05:29:25.282Z,0.45
2023-05-11T05:34:29.585Z,2.50
2023-05-11T05:39:32.355Z,1.48
2023-05-11T05:44:37.036Z,0.20
2023-05-11T05:49:41.294Z,0.82
2023-05-11T05:54:44.109Z,0.35
2023-05-11T05:59:48.944Z,0.30
2023-05-11T06:04:52.882Z,0.60
2023-05-11T06:14:57.911Z,0.60
2023-05-11T06:20:01.888Z,0.00
2023-05-11T06:25:05.065Z,0.30
2023-05-11T06:30:08.613Z,1.70
2023-05-11T06:35:12.618Z,1.35
2023-05-11T06:45:19.898Z,0.40
2023-05-11T06:50:27.173Z,0.70
2023-05-11T06:55:30.536Z,1.17
2023-05-11T07:00:33.133Z,0.52
2023-05-11T07:05:39.376Z,0.95
2023-05-11T07:10:43.098Z,0.95
2023-05-11T07:15:46.348Z,0.70
2023-05-11T07:20:50.717Z,0.68
2023-05-11T07:25:53.812Z,0.73
2023-05-11T07:30:56.642Z,1.87
2023-05-11T07:36:00.647Z,0.80
2023-05-11T07:51:12.599Z,1.17
2023-05-11T07:56:15.469Z,0.10
2023-05-11T08:01:18.610Z,0.85
2023-05-11T08:06:22.921Z,0.87
2023-05-11T08:11:26.332Z,0.47
2023-05-11T08:16:29.351Z,0.25
2023-05-11T08:21:34.273Z,0.97
2023-05-11T08:26:48.748Z,0.73
2023-05-11T08:31:51.521Z,1.25
2023-05-11T08:36:55.997Z,1.05
2023-05-11T08:41:59.673Z,0.55
2023-05-11T08:47:21.026Z,1.45
2023-05-11T08:52:26.502Z,0.63
2023-05-11T08:57:31.873Z,0.10
2023-05-11T09:02:36.016Z,0.43
2023-05-11T09:07:42.126Z,0.32
2023-05-11T09:12:44.676Z,0.20
2023-05-11T09:17:47.298Z,0.57
2023-05-11T09:22:53.241Z,0.40
2023-05-11T09:27:55.822Z,0.20
2023-05-11T09:32:59.546Z,0.10
2023-05-11T09:38:05.449Z,2.60
2023-05-11T09:43:16.803Z,0.17
2023-05-11T09:48:27.182Z,0.30
2023-05-11T09:53:43.323Z,0.43
2023-05-11T09:58:47.386Z,0.40
2023-05-11T10:03:52.104Z,0.80
2023-05-11T10:08:56.560Z,0.80
2023-05-11T10:13:59.390Z,1.70
2023-05-11T10:19:02.118Z,0.85
2023-05-11T10:24:06.945Z,0.55
2023-05-11T10:29:10.476Z,0.20
2023-05-11T10:34:13.183Z,0.57
2023-05-11T10:39:17.182Z,0.20
2023-05-11T10:49:33.125Z,0.28
2023-05-11T10:54:50.869Z,0.20
2023-05-11T11:00:14.509Z,0.10
2023-05-11T11:05:33.632Z,0.30
2023-05-11T11:10:38.949Z,0.17
2023-05-11T11:16:02.831Z,1.00
2023-05-11T11:21:05.483Z,0.57
2023-05-11T11:26:10.114Z,1.02
2023-05-11T11:31:25.948Z,1.55
2023-05-11T11:36:52.526Z,0.20
2023-05-11T11:42:02.575Z,1.35
2023-05-11T11:47:12.143Z,0.47
2023-05-11T11:52:15.391Z,0.40
2023-05-11T11:57:33.347Z,0.50
2023-05-11T12:02:43.603Z,0.82
2023-05-11T12:07:47.427Z,1.33
2023-05-11T12:12:50.815Z,0.32
2023-05-11T12:17:54.989Z,1.50
2023-05-11T12:22:57.640Z,1.42
2023-05-11T12:28:01.672Z,0.68
2023-05-11T12:33:09.256Z,0.30
2023-05-11T12:38:12.114Z,0.28
2023-05-11T12:43:17.681Z,2.42
2023-05-11T12:48:21.560Z,1.05
2023-05-11T12:58:26.641Z,0.90
2023-05-11T13:03:32.709Z,3.50
2023-05-11T13:08:35.689Z,3.20
2023-05-11T13:13:38.423Z,0.10
2023-05-11T13:18:56.972Z,1.23
2023-05-11T13:23:59.913Z,2.25
2023-05-11T13:29:10.614Z,0.30
2023-05-11T13:34:15.759Z,1.48
2023-05-11T13:39:19.683Z,0.68
2023-05-11T13:49:26.420Z,1.38
2023-05-11T13:54:32.024Z,1.25
2023-05-11T13:59:49.557Z,1.13
2023-05-11T14:05:13.981Z,0.88
2023-05-11T14:10:17.127Z,1.98
2023-05-11T14:15:20.406Z,3.50
2023-05-11T14:20:24.756Z,1.90
2023-05-11T14:25:28.035Z,1.23
2023-05-11T14:30:30.969Z,0.45
2023-05-11T14:35:35.720Z,0.90
2023-05-11T14:40:39.990Z,1.88
2023-05-11T14:45:42.547Z,2.17
2023-05-11T14:50:46.461Z,2.05
2023-05-11T15:00:51.428Z,4.55
2023-05-11T15:05:55.320Z,1.63
2023-05-11T15:16:00.391Z,5.32
2023-05-11T15:21:05.879Z,6.63
2023-05-11T15:26:08.470Z,3.92
2023-05-11T15:31:53.349Z,1.23
2023-05-11T15:36:58.654Z,2.63
2023-05-11T15:42:01.248Z,3.22
2023-05-11T15:47:03.829Z,3.65
2023-05-11T15:52:08.231Z,2.72
2023-05-11T15:57:10.770Z,1.73
2023-05-11T16:02:13.366Z,1.73
2023-05-11T16:07:17.521Z,1.45
2023-05-11T16:12:20.265Z,2.30
2023-05-11T16:17:22.845Z,2.42
2023-05-11T16:22:26.752Z,3.05
2023-05-11T16:32:32.213Z,1.75
2023-05-11T16:37:36.197Z,3.70
2023-05-11T16:47:41.409Z,2.17
2023-05-11T16:52:45.345Z,0.82
2023-05-11T16:57:48.007Z,1.25
2023-05-11T17:02:50.764Z,2.20
2023-05-11T17:07:54.848Z,1.48
2023-05-11T17:18:00.622Z,2.00
2023-05-11T17:23:04.638Z,2.42
2023-05-11T17:33:09.806Z,2.25
2023-05-11T17:38:14.191Z,2.63
2023-05-11T17:43:17.140Z,2.78
2023-05-11T17:48:19.666Z,2.43
2023-05-11T17:53:24.302Z,2.25
2023-05-11T17:58:27.617Z,1.63
2023-05-11T18:03:30.290Z,2.03
2023-05-11T18:08:36.397Z,1.67
2023-05-11T18:13:39.199Z,1.80
2023-05-11T18:18:43.207Z,2.17
2023-05-11T18:23:47.260Z,2.83
2023-05-11T18:28:50.070Z,3.40
2023-05-11T18:33:52.708Z,4.63
2023-05-11T18:38:56.685Z,2.53
2023-05-11T18:49:02.702Z,4.88
2023-05-11T18:54:07.401Z,5.85
2023-05-11T18:59:10.001Z,3.72
2023-05-11T19:04:12.652Z,3.38
2023-05-11T19:09:16.644Z,5.30
2023-05-11T19:19:21.596Z,4.18
2023-05-11T19:24:25.735Z,4.32
2023-05-11T19:29:28.389Z,6.63
2023-05-11T19:34:31.756Z,6.18
2023-05-11T19:39:36.151Z,16.55
2023-05-11T19:44:43.556Z,10.02
2023-05-11T19:49:46.745Z,6.00
2023-05-11T19:54:51.630Z,6.17
2023-05-11T19:59:54.391Z,10.85
2023-05-11T20:04:57.185Z,82.13
2023-05-11T20:10:01.454Z,9.10
2023-05-11T20:15:14.597Z,10.70
2023-05-11T20:20:18.111Z,11.23
2023-05-11T20:25:22.688Z,14.40
2023-05-11T20:30:25.403Z,13.05
2023-05-11T20:35:28.257Z,10.15
2023-05-11T20:40:32.261Z,13.73
2023-05-11T20:45:35.633Z,13.63
2023-05-11T20:50:39.323Z,12.07
2023-05-11T20:55:43.277Z,9.68
2023-05-11T21:00:46.078Z,17.27
2023-05-11T21:05:48.612Z,8.82
2023-05-11T21:10:53.178Z,9.55
2023-05-11T21:15:55.776Z,9.05
2023-05-11T21:20:58.434Z,11.15
2023-05-11T21:26:03.311Z,10.07
2023-05-11T21:31:06.438Z,12.70
2023-05-11T21:36:09.334Z,8.35
2023-05-11T21:41:13.206Z,15.68
2023-05-11T21:51:18.290Z,13.02
2023-05-11T21:56:22.240Z,12.23
2023-05-11T22:06:27.305Z,13.90
2023-05-11T22:11:31.887Z,13.15
2023-05-11T22:16:34.453Z,18.92
2023-05-11T22:21:37.010Z,14.52
2023-05-11T22:26:41.068Z,15.35
2023-05-11T22:31:46.011Z,17.50
2023-05-11T22:36:49.073Z,15.65
2023-05-11T22:41:54.088Z,22.48
2023-05-11T22:46:59.162Z,18.42
2023-05-11T22:52:01.770Z,21.75
2023-05-11T22:57:06.351Z,19.58
2023-05-11T23:02:08.947Z,20.83
2023-05-11T23:07:12.745Z,22.75
2023-05-11T23:12:18.291Z,19.70
2023-05-11T23:17:41.173Z,23.17
2023-05-11T23:22:44.256Z,21.88
2023-05-11T23:27:48.385Z,23.00
2023-05-11T23:32:51.002Z,21.30
2023-05-11T23:37:53.509Z,20.05
2023-05-11T23:42:57.412Z,18.42
2023-05-11T23:53:02.418Z,12.50
2023-05-11T23:58:06.297Z,16.67
